createdAt,value
2019-06-26T00:01:53.905Z,27.49
2019-06-26T00:04:21.364Z,27.46
2019-06-26T00:06:48.795Z,27.47
2019-06-26T00:09:16.242Z,27.52
2019-06-26T00:11:43.618Z,27.44
2019-06-26T00:14:10.913Z,27.48
2019-06-26T00:16:38.382Z,27.41
2019-06-26T00:19:05.683Z,27.39
2019-06-26T00:21:33.029Z,27.41
2019-06-26T00:24:00.291Z,27.39
2019-06-26T00:26:27.627Z,27.47
2019-06-26T00:28:54.886Z,27.50
2019-06-26T00:31:22.515Z,27.56
2019-06-26T00:33:49.838Z,27.49
2019-06-26T00:36:17.136Z,27.50
2019-06-26T00:38:44.463Z,27.42
2019-06-26T00:41:11.730Z,27.37
2019-06-26T00:43:42.622Z,27.41
2019-06-26T00:46:08.251Z,27.29
2019-06-26T00:48:35.642Z,27.22
2019-06-26T00:51:02.919Z,27.13
2019-06-26T00:53:30.208Z,27.18
2019-06-26T00:55:57.492Z,27.29
2019-06-26T00:58:24.904Z,27.22
2019-06-26T01:00:55.116Z,27.26
2019-06-26T01:03:22.583Z,27.23
2019-06-26T01:05:49.847Z,27.20
2019-06-26T01:08:18.149Z,26.92
2019-06-26T01:10:45.459Z,27.02
2019-06-26T01:13:12.803Z,26.82
2019-06-26T01:15:40.332Z,26.77
2019-06-26T01:18:07.680Z,26.59
2019-06-26T01:20:35.015Z,26.31
2019-06-26T01:23:02.389Z,26.31
2019-06-26T01:25:29.654Z,26.18
2019-06-26T01:27:57.106Z,26.00
2019-06-26T01:30:24.636Z,25.92
2019-06-26T01:32:52.008Z,25.86
2019-06-26T01:35:19.392Z,25.86
2019-06-26T01:37:46.693Z,25.88
2019-06-26T01:40:14.047Z,25.72
2019-06-26T01:42:41.361Z,25.85
2019-06-26T01:45:08.809Z,25.77
2019-06-26T01:47:36.090Z,25.77
2019-06-26T01:50:03.617Z,25.74
2019-06-26T01:52:30.968Z,25.71
2019-06-26T01:54:58.237Z,25.70
2019-06-26T01:57:25.544Z,25.73
2019-06-26T01:59:52.892Z,25.73
2019-06-26T02:02:20.146Z,25.68
2019-06-26T02:04:47.427Z,25.74
2019-06-26T02:07:14.670Z,25.68
2019-06-26T02:09:41.923Z,25.68
2019-06-26T02:12:09.170Z,25.56
2019-06-26T02:14:36.567Z,25.67
2019-06-26T02:17:03.823Z,25.50
2019-06-26T02:19:31.201Z,25.39
2019-06-26T02:21:58.433Z,25.39
2019-06-26T02:24:25.931Z,25.37
2019-06-26T02:26:53.210Z,25.37
2019-06-26T02:29:20.525Z,25.12
2019-06-26T02:31:47.799Z,25.12
2019-06-26T02:34:15.044Z,25.02
2019-06-26T02:36:42.308Z,24.82
2019-06-26T02:39:09.589Z,24.70
2019-06-26T02:41:36.947Z,24.68
2019-06-26T02:44:04.343Z,24.61
2019-06-26T02:46:31.676Z,24.39
2019-06-26T02:48:59.036Z,24.26
2019-06-26T02:51:26.276Z,24.19
2019-06-26T02:53:53.561Z,24.09
2019-06-26T02:56:20.920Z,24.05
2019-06-26T02:58:48.226Z,24.06
2019-06-26T03:01:15.683Z,23.93
2019-06-26T03:03:43.074Z,23.89
2019-06-26T03:06:10.360Z,23.97
2019-06-26T03:08:37.847Z,23.95
2019-06-26T03:11:05.252Z,23.82
2019-06-26T03:13:32.661Z,23.74
2019-06-26T03:16:00.081Z,23.63
2019-06-26T03:18:27.325Z,23.64
2019-06-26T03:20:54.975Z,23.69
2019-06-26T03:23:22.242Z,23.73
2019-06-26T03:25:49.511Z,23.77
2019-06-26T03:28:16.849Z,23.88
2019-06-26T03:30:44.445Z,23.96
2019-06-26T03:33:11.876Z,24.11
2019-06-26T03:35:40.843Z,24.15
2019-06-26T03:38:09.543Z,24.21
2019-06-26T03:40:37.088Z,24.21
2019-06-26T03:43:04.397Z,24.33
2019-06-26T03:45:31.743Z,24.36
2019-06-26T03:47:59.080Z,24.46
2019-06-26T03:50:26.463Z,24.47
2019-06-26T03:52:53.860Z,24.55
2019-06-26T03:55:21.116Z,24.55
2019-06-26T03:57:48.425Z,24.59
2019-06-26T04:00:21.527Z,24.72
2019-06-26T04:02:48.782Z,24.71
2019-06-26T04:05:16.026Z,24.78
2019-06-26T04:07:43.284Z,24.86
2019-06-26T04:10:11.085Z,24.92
2019-06-26T04:12:38.463Z,24.96
2019-06-26T04:15:06.031Z,24.93
2019-06-26T04:17:33.402Z,24.97
2019-06-26T04:20:00.672Z,25.06
2019-06-26T04:22:27.990Z,25.14
2019-06-26T04:24:56.243Z,25.22
2019-06-26T04:27:23.516Z,25.34
2019-06-26T04:29:50.796Z,25.42
2019-06-26T04:32:18.077Z,25.53
2019-06-26T04:34:45.442Z,25.56
2019-06-26T04:37:12.731Z,25.56
2019-06-26T04:39:40.015Z,25.55
2019-06-26T04:42:07.265Z,25.73
2019-06-26T04:44:34.783Z,25.76
2019-06-26T04:47:02.091Z,25.91
2019-06-26T04:49:29.386Z,25.96
2019-06-26T04:51:57.651Z,25.96
2019-06-26T04:54:25.004Z,26.01
2019-06-26T04:56:52.415Z,26.00
2019-06-26T04:59:21.550Z,26.07
2019-06-26T05:01:50.370Z,26.17
2019-06-26T05:04:21.156Z,26.15
2019-06-26T05:06:48.448Z,26.19
2019-06-26T05:09:15.688Z,26.19
2019-06-26T05:11:43.096Z,26.42
2019-06-26T05:14:10.350Z,26.42
2019-06-26T05:16:37.685Z,26.47
2019-06-26T05:19:04.951Z,26.70
2019-06-26T05:21:32.169Z,26.87
2019-06-26T05:23:59.463Z,26.87
2019-06-26T05:26:26.708Z,27.01
2019-06-26T05:28:54.055Z,27.10
2019-06-26T05:31:21.334Z,27.24
2019-06-26T05:33:48.547Z,27.41
2019-06-26T05:36:15.866Z,27.60
2019-06-26T05:38:43.128Z,27.82
2019-06-26T05:41:10.398Z,28.01
2019-06-26T05:43:37.639Z,28.24
2019-06-26T05:46:04.851Z,28.24
2019-06-26T05:48:32.271Z,28.46
2019-06-26T05:50:59.727Z,28.58
2019-06-26T05:53:26.977Z,28.47
2019-06-26T05:55:54.209Z,28.57
2019-06-26T05:58:21.729Z,28.56
2019-06-26T06:00:49.142Z,28.57
2019-06-26T06:03:16.378Z,28.92
2019-06-26T06:05:43.614Z,28.91
2019-06-26T06:08:10.806Z,28.95
2019-06-26T06:10:38.061Z,29.18
2019-06-26T06:13:05.271Z,29.51
2019-06-26T06:15:33.482Z,29.56
2019-06-26T06:18:00.718Z,29.60
2019-06-26T06:20:35.604Z,29.60
2019-06-26T06:23:02.827Z,29.85
2019-06-26T06:25:30.036Z,29.80
2019-06-26T06:27:57.271Z,29.86
2019-06-26T06:30:24.500Z,29.65
2019-06-26T06:32:51.755Z,29.63
2019-06-26T06:35:18.959Z,29.80
2019-06-26T06:37:46.155Z,30.06
2019-06-26T06:40:13.498Z,30.14
2019-06-26T06:42:40.716Z,30.40
2019-06-26T06:45:10.193Z,30.38
2019-06-26T06:47:37.402Z,30.66
2019-06-26T06:50:05.029Z,30.82
2019-06-26T06:52:32.289Z,30.88
2019-06-26T06:54:59.961Z,30.78
2019-06-26T06:57:27.444Z,30.82
2019-06-26T06:59:54.691Z,30.77
2019-06-26T07:02:22.093Z,31.01
2019-06-26T07:04:49.336Z,30.99
2019-06-26T07:07:16.822Z,31.25
2019-06-26T07:09:44.128Z,31.23
2019-06-26T07:12:11.440Z,31.11
2019-06-26T07:14:38.912Z,31.37
2019-06-26T07:17:19.208Z,31.68
2019-06-26T07:19:35.332Z,31.55
2019-06-26T07:22:02.586Z,31.65
2019-06-26T07:24:30.179Z,31.73
2019-06-26T07:26:57.574Z,32.05
2019-06-26T07:29:24.853Z,32.02
2019-06-26T07:31:52.158Z,32.20
2019-06-26T07:34:19.606Z,32.41
2019-06-26T07:36:47.029Z,32.72
2019-06-26T07:39:14.349Z,32.96
2019-06-26T07:41:41.643Z,33.14
2019-06-26T07:44:08.955Z,33.34
2019-06-26T07:46:36.239Z,33.18
2019-06-26T07:49:03.501Z,33.23
2019-06-26T07:51:30.757Z,33.11
2019-06-26T07:53:58.038Z,32.68
2019-06-26T07:56:25.315Z,32.87
2019-06-26T07:58:52.620Z,33.06
2019-06-26T08:01:19.843Z,32.92
2019-06-26T08:03:47.080Z,32.62
2019-06-26T08:06:14.292Z,32.59
2019-06-26T08:08:41.500Z,32.83
2019-06-26T08:11:08.780Z,33.05
2019-06-26T08:13:36.043Z,33.22
2019-06-26T08:16:03.335Z,33.19
2019-06-26T08:18:30.591Z,33.11
2019-06-26T08:21:11.537Z,33.08
2019-06-26T08:23:27.182Z,32.97
2019-06-26T08:25:54.503Z,32.95
2019-06-26T08:28:21.746Z,33.31
2019-06-26T08:30:49.076Z,33.39
2019-06-26T08:33:16.406Z,33.58
2019-06-26T08:35:43.659Z,33.73
2019-06-26T08:38:15.354Z,33.55
2019-06-26T08:40:40.163Z,33.58
2019-06-26T08:43:07.410Z,33.80
2019-06-26T08:45:34.665Z,33.93
2019-06-26T08:48:16.797Z,33.71
2019-06-26T08:50:32.141Z,34.00
2019-06-26T08:52:59.421Z,34.38
2019-06-26T08:55:26.667Z,34.17
2019-06-26T08:57:53.939Z,34.12
2019-06-26T09:00:21.445Z,33.98
2019-06-26T09:02:48.709Z,34.15
2019-06-26T09:05:16.129Z,34.19
2019-06-26T09:07:43.423Z,34.49
2019-06-26T09:10:10.678Z,34.72
2019-06-26T09:12:38.083Z,34.98
2019-06-26T09:15:05.448Z,35.30
2019-06-26T09:17:32.848Z,35.09
2019-06-26T09:20:00.128Z,35.30
2019-06-26T09:22:27.418Z,35.44
2019-06-26T09:24:54.712Z,35.17
2019-06-26T09:27:21.970Z,35.32
2019-06-26T09:29:49.249Z,35.67
2019-06-26T09:32:20.069Z,35.97
2019-06-26T09:34:47.385Z,36.34
2019-06-26T09:37:14.649Z,36.76
2019-06-26T09:39:41.938Z,36.22
2019-06-26T09:42:09.174Z,35.98
2019-06-26T09:44:36.496Z,36.33
2019-06-26T09:47:04.786Z,36.16
2019-06-26T09:49:32.047Z,36.41
2019-06-26T09:51:59.328Z,36.40
2019-06-26T09:54:26.620Z,36.42
2019-06-26T09:56:53.896Z,36.72
2019-06-26T09:59:21.192Z,37.07
2019-06-26T10:01:48.499Z,37.11
2019-06-26T10:04:15.758Z,37.02
2019-06-26T10:06:43.327Z,36.90
2019-06-26T10:09:11.708Z,36.56
2019-06-26T10:11:39.005Z,36.74
2019-06-26T10:14:06.413Z,37.15
2019-06-26T10:16:33.860Z,37.23
2019-06-26T10:19:10.020Z,37.25
2019-06-26T10:21:30.326Z,36.45
2019-06-26T10:23:57.603Z,36.29
2019-06-26T10:26:24.877Z,36.59
2019-06-26T10:28:52.495Z,36.60
2019-06-26T10:31:19.780Z,37.02
2019-06-26T10:33:47.057Z,37.09
2019-06-26T10:36:14.303Z,36.87
2019-06-26T10:38:41.601Z,36.51
2019-06-26T10:41:08.857Z,36.30
2019-06-26T10:43:36.120Z,36.36
2019-06-26T10:46:03.600Z,36.83
2019-06-26T10:48:30.995Z,37.29
2019-06-26T10:50:59.143Z,37.68
2019-06-26T10:53:27.047Z,37.34
2019-06-26T10:55:54.439Z,37.84
2019-06-26T10:58:22.486Z,38.29
2019-06-26T11:00:51.621Z,38.21
2019-06-26T11:03:19.459Z,37.63
2019-06-26T11:05:47.438Z,37.23
2019-06-26T11:08:14.873Z,36.75
2019-06-26T11:10:42.229Z,36.93
2019-06-26T11:13:09.520Z,37.07
2019-06-26T11:15:36.866Z,37.12
2019-06-26T11:18:04.564Z,37.42
2019-06-26T11:20:32.254Z,37.65
2019-06-26T11:22:59.928Z,37.88
2019-06-26T11:25:27.321Z,38.35
2019-06-26T11:27:54.743Z,38.58
2019-06-26T11:30:22.934Z,38.44
2019-06-26T11:32:50.516Z,38.54
2019-06-26T11:35:17.945Z,38.52
2019-06-26T11:37:45.411Z,38.61
2019-06-26T11:40:13.531Z,38.89
2019-06-26T11:42:40.817Z,38.95
2019-06-26T11:45:09.885Z,39.09
2019-06-26T11:47:37.478Z,38.85
2019-06-26T11:50:05.143Z,38.95
2019-06-26T11:52:32.563Z,38.46
2019-06-26T11:55:08.156Z,38.03
2019-06-26T11:57:35.490Z,38.61
2019-06-26T12:00:03.707Z,38.92
2019-06-26T12:02:31.059Z,38.11
2019-06-26T12:04:58.393Z,38.35
2019-06-26T12:07:25.670Z,38.32
2019-06-26T12:09:53.151Z,38.59
2019-06-26T12:12:20.524Z,38.64
2019-06-26T12:14:47.791Z,38.61
2019-06-26T12:17:15.098Z,38.08
2019-06-26T12:19:42.438Z,37.57
2019-06-26T12:22:09.679Z,37.82
2019-06-26T12:24:37.110Z,38.31
2019-06-26T12:27:05.758Z,38.62
2019-06-26T12:29:35.093Z,39.14
2019-06-26T12:32:03.114Z,38.52
2019-06-26T12:34:30.780Z,39.32
2019-06-26T12:36:58.100Z,39.40
2019-06-26T12:39:25.372Z,39.61
2019-06-26T12:41:52.660Z,39.40
2019-06-26T12:44:20.032Z,39.32
2019-06-26T12:46:47.402Z,38.99
2019-06-26T12:49:14.737Z,39.47
2019-06-26T12:51:42.009Z,39.77
2019-06-26T12:54:09.282Z,40.29
2019-06-26T12:56:36.529Z,39.86
2019-06-26T12:59:03.826Z,40.01
2019-06-26T13:01:31.096Z,39.18
2019-06-26T13:03:58.427Z,38.63
2019-06-26T13:06:25.664Z,39.43
2019-06-26T13:08:52.942Z,39.27
2019-06-26T13:11:20.225Z,39.00
2019-06-26T13:14:01.478Z,38.86
2019-06-26T13:16:16.655Z,38.12
2019-06-26T13:18:43.918Z,38.33
2019-06-26T13:21:11.220Z,38.03
2019-06-26T13:23:38.647Z,37.11
2019-06-26T13:26:05.998Z,36.69
2019-06-26T13:28:33.296Z,36.62
2019-06-26T13:31:00.629Z,37.04
2019-06-26T13:33:27.907Z,37.29
2019-06-26T13:35:55.202Z,38.26
2019-06-26T13:38:22.469Z,38.56
2019-06-26T13:40:49.693Z,38.00
2019-06-26T13:43:17.054Z,38.10
2019-06-26T13:45:44.326Z,38.34
2019-06-26T13:48:11.579Z,37.99
2019-06-26T13:50:39.006Z,38.41
2019-06-26T13:53:06.266Z,39.13
2019-06-26T13:55:33.531Z,38.76
2019-06-26T13:58:00.772Z,38.67
2019-06-26T14:00:28.048Z,38.72
2019-06-26T14:02:55.279Z,38.93
2019-06-26T14:05:22.564Z,38.72
2019-06-26T14:07:49.848Z,39.59
2019-06-26T14:10:17.309Z,39.76
2019-06-26T14:12:44.609Z,38.78
2019-06-26T14:15:12.595Z,38.48
2019-06-26T14:17:39.841Z,39.30
2019-06-26T14:20:07.563Z,38.82
2019-06-26T14:22:34.969Z,38.06
2019-06-26T14:25:02.251Z,38.31
2019-06-26T14:27:30.604Z,37.81
2019-06-26T14:29:57.861Z,37.71
2019-06-26T14:32:25.179Z,38.41
2019-06-26T14:34:52.410Z,38.46
2019-06-26T14:37:19.690Z,38.35
2019-06-26T14:39:46.970Z,38.43
2019-06-26T14:42:14.339Z,38.11
2019-06-26T14:44:41.788Z,38.36
2019-06-26T14:47:09.066Z,38.72
2019-06-26T14:49:36.276Z,38.70
2019-06-26T14:52:03.847Z,39.63
2019-06-26T14:54:31.207Z,39.56
2019-06-26T14:56:58.535Z,40.59
2019-06-26T14:59:25.854Z,40.35
2019-06-26T15:01:53.149Z,39.36
2019-06-26T15:04:20.374Z,39.49
2019-06-26T15:06:47.842Z,39.39
2019-06-26T15:09:15.098Z,39.50
2019-06-26T15:11:42.347Z,40.50
2019-06-26T15:14:09.644Z,40.69
2019-06-26T15:16:36.895Z,39.75
2019-06-26T15:19:04.266Z,40.46
2019-06-26T15:21:31.524Z,40.94
2019-06-26T15:23:58.842Z,39.92
2019-06-26T15:26:26.084Z,38.78
2019-06-26T15:28:53.382Z,39.40
2019-06-26T15:31:20.667Z,39.02
2019-06-26T15:33:47.954Z,38.74
2019-06-26T15:36:15.212Z,38.66
2019-06-26T15:38:42.510Z,38.68
2019-06-26T15:41:09.961Z,39.43
2019-06-26T15:43:37.324Z,39.58
2019-06-26T15:46:04.898Z,38.73
2019-06-26T15:48:32.241Z,38.56
2019-06-26T15:50:59.535Z,38.44
2019-06-26T15:53:26.799Z,38.20
2019-06-26T15:55:54.100Z,38.94
2019-06-26T15:58:21.333Z,38.41
2019-06-26T16:00:48.659Z,36.63
2019-06-26T16:03:16.115Z,35.75
2019-06-26T16:05:43.371Z,35.95
2019-06-26T16:08:10.622Z,36.64
2019-06-26T16:10:37.881Z,35.83
2019-06-26T16:13:05.138Z,36.08
2019-06-26T16:15:33.003Z,36.04
2019-06-26T16:18:08.628Z,35.90
2019-06-26T16:20:36.054Z,36.20
2019-06-26T16:23:03.357Z,36.03
2019-06-26T16:25:30.637Z,35.89
2019-06-26T16:28:05.277Z,35.32
2019-06-26T16:30:27.145Z,35.03
2019-06-26T16:32:56.987Z,34.80
2019-06-26T16:35:25.588Z,34.45
2019-06-26T16:37:52.974Z,33.85
2019-06-26T16:40:20.260Z,34.01
2019-06-26T16:42:47.509Z,33.77
2019-06-26T16:45:16.037Z,33.58
2019-06-26T16:47:43.300Z,33.15
2019-06-26T16:50:10.617Z,32.09
2019-06-26T16:52:48.617Z,31.55
2019-06-26T16:55:07.134Z,31.30
2019-06-26T16:57:35.520Z,30.77
2019-06-26T17:00:09.642Z,30.61
2019-06-26T17:02:33.417Z,30.40
2019-06-26T17:05:00.889Z,30.51
2019-06-26T17:07:28.304Z,30.92
2019-06-26T17:09:55.535Z,31.06
2019-06-26T17:12:22.828Z,31.84
2019-06-26T17:14:50.276Z,32.07
2019-06-26T17:17:17.546Z,31.60
2019-06-26T17:19:44.867Z,31.39
2019-06-26T17:22:12.094Z,31.28
2019-06-26T17:24:39.671Z,31.34
2019-06-26T17:27:07.950Z,30.60
2019-06-26T17:29:35.188Z,30.11
2019-06-26T17:32:02.456Z,30.26
2019-06-26T17:34:29.941Z,29.55
2019-06-26T17:36:57.271Z,29.09
2019-06-26T17:39:24.502Z,29.35
2019-06-26T17:41:52.014Z,29.17
2019-06-26T17:44:19.548Z,28.67
2019-06-26T17:46:46.822Z,28.77
2019-06-26T17:49:14.076Z,28.77
2019-06-26T17:51:41.281Z,28.82
2019-06-26T17:54:08.578Z,28.87
2019-06-26T17:56:35.831Z,28.98
2019-06-26T17:59:03.096Z,29.18
2019-06-26T18:01:30.338Z,29.82
2019-06-26T18:03:57.651Z,29.66
2019-06-26T18:06:25.113Z,29.52
2019-06-26T18:08:52.434Z,29.59
2019-06-26T18:11:19.717Z,29.28
2019-06-26T18:13:46.970Z,29.18
2019-06-26T18:16:14.225Z,29.25
2019-06-26T18:18:41.438Z,29.29
2019-06-26T18:21:08.705Z,29.14
2019-06-26T18:23:38.487Z,29.00
2019-06-26T18:26:12.888Z,28.71
2019-06-26T18:28:35.526Z,28.31
2019-06-26T18:31:02.788Z,28.04
2019-06-26T18:33:30.102Z,27.60
2019-06-26T18:35:57.399Z,27.33
2019-06-26T18:38:24.839Z,27.16
2019-06-26T18:40:52.216Z,27.16
2019-06-26T18:43:19.483Z,27.08
2019-06-26T18:45:46.971Z,27.08
2019-06-26T18:48:14.425Z,27.06
2019-06-26T18:50:41.956Z,26.96
2019-06-26T18:53:09.570Z,26.76
2019-06-26T18:55:37.159Z,26.80
2019-06-26T18:58:04.538Z,26.48
2019-06-26T19:00:32.155Z,26.26
2019-06-26T19:02:59.477Z,26.20
2019-06-26T19:05:26.863Z,25.87
2019-06-26T19:07:54.275Z,25.68
2019-06-26T19:10:21.522Z,25.68
2019-06-26T19:12:48.825Z,25.60
2019-06-26T19:15:16.109Z,25.56
2019-06-26T19:17:43.427Z,25.56
2019-06-26T19:20:10.933Z,25.35
2019-06-26T19:22:38.354Z,25.00
2019-06-26T19:25:06.004Z,24.88
2019-06-26T19:27:33.268Z,24.85
2019-06-26T19:30:00.557Z,24.84
2019-06-26T19:32:29.194Z,24.58
2019-06-26T19:34:56.441Z,24.31
2019-06-26T19:37:23.670Z,24.15
2019-06-26T19:39:50.960Z,24.13
2019-06-26T19:42:18.203Z,24.23
2019-06-26T19:44:45.469Z,24.06
2019-06-26T19:47:12.723Z,23.98
2019-06-26T19:49:39.985Z,23.84
2019-06-26T19:52:08.305Z,23.73
2019-06-26T19:54:36.257Z,23.71
2019-06-26T19:57:03.578Z,23.58
2019-06-26T19:59:30.863Z,23.63
2019-06-26T20:01:58.117Z,23.56
2019-06-26T20:04:25.367Z,23.40
2019-06-26T20:06:52.686Z,23.44
2019-06-26T20:09:19.967Z,23.21
2019-06-26T20:11:47.259Z,23.20
2019-06-26T20:14:15.548Z,23.19
2019-06-26T20:16:42.870Z,23.17
2019-06-26T20:19:10.219Z,23.06
2019-06-26T20:21:37.511Z,23.03
2019-06-26T20:24:04.759Z,22.95
2019-06-26T20:26:32.092Z,22.85
2019-06-26T20:28:59.319Z,22.59
2019-06-26T20:31:26.599Z,22.59
2019-06-26T20:33:53.889Z,22.36
2019-06-26T20:36:21.188Z,22.31
2019-06-26T20:38:48.444Z,22.22
2019-06-26T20:41:15.701Z,22.27
2019-06-26T20:43:42.970Z,22.13
2019-06-26T20:46:10.250Z,21.99
2019-06-26T20:48:37.564Z,21.84
2019-06-26T20:51:04.819Z,21.94
2019-06-26T20:53:33.102Z,21.96
2019-06-26T20:56:00.372Z,21.92
2019-06-26T20:58:27.746Z,21.86
2019-06-26T21:00:55.065Z,21.66
2019-06-26T21:03:22.357Z,21.73
2019-06-26T21:05:49.616Z,21.56
2019-06-26T21:08:16.926Z,21.45
2019-06-26T21:10:44.372Z,21.52
2019-06-26T21:13:11.718Z,21.35
2019-06-26T21:15:38.963Z,21.18
2019-06-26T21:18:06.382Z,21.25
2019-06-26T21:20:33.633Z,21.26
2019-06-26T21:23:00.879Z,21.16
2019-06-26T21:25:28.148Z,21.20
2019-06-26T21:27:55.444Z,21.10
2019-06-26T21:30:22.714Z,21.17
2019-06-26T21:32:50.012Z,20.99
2019-06-26T21:35:17.267Z,20.91
2019-06-26T21:37:44.575Z,20.72
2019-06-26T21:40:11.932Z,20.62
2019-06-26T21:42:39.193Z,20.52
2019-06-26T21:45:07.350Z,20.39
2019-06-26T21:47:34.642Z,20.19
2019-06-26T21:50:01.945Z,20.23
2019-06-26T21:52:30.278Z,20.07
2019-06-26T21:54:57.515Z,20.00
2019-06-26T21:57:43.203Z,20.02
2019-06-26T22:00:30.299Z,19.97
2019-06-26T22:03:16.590Z,19.91
2019-06-26T22:05:45.731Z,19.89
2019-06-26T22:08:19.624Z,19.85
2019-06-26T22:10:50.639Z,19.57
2019-06-26T22:13:21.644Z,19.67
2019-06-26T22:15:50.922Z,19.62
2019-06-26T22:18:18.570Z,19.40
2019-06-26T22:20:45.976Z,19.18
2019-06-26T22:23:13.311Z,19.07
2019-06-26T22:25:50.428Z,19.00
2019-06-26T22:28:09.907Z,18.98
2019-06-26T22:30:37.294Z,18.93
2019-06-26T22:33:04.724Z,18.80
2019-06-26T22:35:32.021Z,18.71
2019-06-26T22:37:59.400Z,18.61
2019-06-26T22:40:26.767Z,18.68
2019-06-26T22:42:54.088Z,18.65
2019-06-26T22:45:21.388Z,18.51
2019-06-26T22:47:48.757Z,18.27
2019-06-26T22:50:16.137Z,18.19
2019-06-26T22:52:43.428Z,18.23
2019-06-26T22:55:10.749Z,18.22
2019-06-26T22:57:38.048Z,18.10
2019-06-26T23:00:05.776Z,18.07
2019-06-26T23:02:34.838Z,18.07
2019-06-26T23:05:02.168Z,17.86
2019-06-26T23:07:29.522Z,17.89
2019-06-26T23:09:56.780Z,17.76
2019-06-26T23:12:24.170Z,17.68
2019-06-26T23:14:51.393Z,17.84
2019-06-26T23:17:18.666Z,17.72
2019-06-26T23:19:45.925Z,17.65
2019-06-26T23:22:13.150Z,17.68
2019-06-26T23:24:40.438Z,17.63
2019-06-26T23:27:07.677Z,17.65
2019-06-26T23:29:34.960Z,17.63
2019-06-26T23:32:03.353Z,17.57
2019-06-26T23:34:30.890Z,17.57
2019-06-26T23:36:58.953Z,17.57
2019-06-26T23:39:26.194Z,17.41
2019-06-26T23:41:53.497Z,17.24
2019-06-26T23:44:20.743Z,17.15
2019-06-26T23:46:47.991Z,17.10
2019-06-26T23:49:15.246Z,17.28
2019-06-26T23:51:42.760Z,17.26
2019-06-26T23:54:10.123Z,17.19
2019-06-26T23:56:40.775Z,17.04
2019-06-26T23:59:06.695Z,17.18
